createdAt,value
2019-04-29T00:03:29.477Z,1
2019-04-29T00:08:32.058Z,1
2019-04-29T00:13:34.715Z,1
2019-04-29T00:18:36.871Z,1
2019-04-29T00:23:39.292Z,1
2019-04-29T00:28:41.824Z,1
2019-04-29T00:38:46.755Z,1
2019-04-29T00:43:49.117Z,1
2019-04-29T00:48:51.684Z,1
2019-04-29T00:53:54.026Z,1
2019-04-29T00:58:56.602Z,1
2019-04-29T01:03:59.048Z,1
2019-04-29T01:09:01.428Z,1
2019-04-29T01:14:03.863Z,1
2019-04-29T01:19:06.393Z,1
2019-04-29T01:24:08.886Z,1
2019-04-29T01:29:11.374Z,1
2019-04-29T01:34:13.686Z,1
2019-04-29T01:39:16.164Z,1
2019-04-29T01:44:18.664Z,1
2019-04-29T01:49:21.069Z,1
2019-04-29T01:54:23.559Z,1
2019-04-29T01:59:26.109Z,1
2019-04-29T02:04:28.432Z,1
2019-04-29T02:09:31.079Z,1
2019-04-29T02:14:33.358Z,1
2019-04-29T02:19:35.806Z,5.2
2019-04-29T02:24:38.277Z,15.6
2019-04-29T02:29:40.809Z,19.2
2019-04-29T02:34:43.185Z,19.8
2019-04-29T02:39:45.858Z,22.3
2019-04-29T02:44:48.143Z,22.3
2019-04-29T02:49:50.635Z,31.4
2019-04-29T02:54:52.996Z,52.8
2019-04-29T02:59:55.563Z,66.5
2019-04-29T03:04:58.474Z,99.9
2019-04-29T03:10:00.440Z,99.9
2019-04-29T03:15:02.939Z,99.9
2019-04-29T03:20:05.639Z,99.9
2019-04-29T03:25:07.993Z,99.9
2019-04-29T03:35:12.775Z,99.9
2019-04-29T03:40:15.162Z,99.9
2019-04-29T03:45:17.622Z,99.9
2019-04-29T03:50:20.096Z,99.9
2019-04-29T03:55:37.945Z,99.9
2019-04-29T04:00:25.227Z,99.9
2019-04-29T04:05:27.562Z,99.9
2019-04-29T04:10:29.925Z,99.9
2019-04-29T04:15:32.360Z,99.9
2019-04-29T04:20:34.857Z,99.9
2019-04-29T04:30:39.732Z,99.9
2019-04-29T04:35:42.193Z,99.9
2019-04-29T04:40:44.678Z,99.9
2019-04-29T04:45:47.091Z,99.9
2019-04-29T04:50:49.574Z,99.9
2019-04-29T04:55:52.057Z,99.9
2019-04-29T05:00:54.502Z,99.9
2019-04-29T05:05:56.949Z,99.9
2019-04-29T05:10:59.390Z,59
2019-04-29T05:16:01.869Z,34.2
2019-04-29T05:21:04.320Z,25.7
2019-04-29T05:26:06.842Z,16.6
2019-04-29T05:31:09.266Z,11.4
2019-04-29T05:36:11.683Z,5.2
2019-04-29T05:41:14.186Z,4.8
2019-04-29T05:46:17.231Z,4.5
2019-04-29T05:51:22.664Z,1
2019-04-29T05:56:21.664Z,1
2019-04-29T06:01:24.089Z,1
2019-04-29T06:06:26.480Z,1
2019-04-29T06:11:29.034Z,1
2019-04-29T06:16:31.448Z,1
2019-04-29T06:21:33.863Z,1
2019-04-29T06:26:36.442Z,1
2019-04-29T06:31:38.744Z,1
2019-04-29T06:36:41.227Z,1
2019-04-29T06:41:46.585Z,1
2019-04-29T06:46:46.157Z,1
2019-04-29T06:51:48.595Z,1
2019-04-29T06:56:51.090Z,1.6
2019-04-29T07:01:53.811Z,2.1
2019-04-29T07:06:57.389Z,6.8
2019-04-29T07:12:01.495Z,11.5
2019-04-29T07:17:05.420Z,20.6
2019-04-29T07:22:03.418Z,43.4
2019-04-29T07:27:05.731Z,48.8
2019-04-29T07:32:09.191Z,62
2019-04-29T07:37:10.684Z,79.7
2019-04-29T07:42:13.456Z,97.7
2019-04-29T07:47:15.568Z,99.9
2019-04-29T07:52:18.028Z,99.9
2019-04-29T07:57:20.488Z,99.9
2019-04-29T08:02:22.949Z,99.9
2019-04-29T08:07:25.443Z,99.9
2019-04-29T08:12:27.892Z,99.9
2019-04-29T08:17:30.445Z,99.9
2019-04-29T08:22:32.861Z,99.9
2019-04-29T08:27:39.943Z,99.9
2019-04-29T08:32:38.149Z,99.9
2019-04-29T08:37:40.246Z,99.9
2019-04-29T08:42:46.517Z,99.9
2019-04-29T08:47:45.146Z,99.9
2019-04-29T08:52:47.700Z,99.9
2019-04-29T08:57:50.024Z,99.9
2019-04-29T09:02:52.629Z,99.9
2019-04-29T09:07:57.206Z,99.9
2019-04-29T09:12:57.700Z,99.9
2019-04-29T09:18:00.659Z,99.9
2019-04-29T09:23:02.269Z,99.9
2019-04-29T09:28:04.720Z,99.9
2019-04-29T09:33:08.633Z,99.9
2019-04-29T09:38:10.207Z,99.9
2019-04-29T09:43:15.469Z,99.9
2019-04-29T09:48:14.920Z,99.9
2019-04-29T09:53:17.076Z,99.9
2019-04-29T09:58:19.522Z,99.9
2019-04-29T10:03:22.197Z,99.9
2019-04-29T10:08:24.417Z,99.9
2019-04-29T10:13:26.865Z,99.9
2019-04-29T10:18:29.958Z,99.9
2019-04-29T10:23:31.850Z,99.9
2019-04-29T10:28:34.211Z,99.9
2019-04-29T10:33:36.895Z,99.9
2019-04-29T10:38:40.385Z,99.9
2019-04-29T10:43:41.586Z,99.9
2019-04-29T10:48:44.234Z,99.9
2019-04-29T10:58:49.601Z,99.9
2019-04-29T11:03:55.767Z,99.9
2019-04-29T11:08:53.886Z,99.9
2019-04-29T11:18:59.678Z,99.9
2019-04-29T11:24:01.345Z,99.9
2019-04-29T11:29:06.138Z,99.9
2019-04-29T11:34:06.186Z,99.9
2019-04-29T11:39:13.328Z,99.9
2019-04-29T11:44:11.302Z,99.9
2019-04-29T11:49:13.803Z,99.9
2019-04-29T11:54:17.986Z,99.9
2019-04-29T11:59:18.584Z,99.9
2019-04-29T12:04:20.922Z,99.9
2019-04-29T12:09:25.299Z,99.9
2019-04-29T12:14:25.832Z,99.9
2019-04-29T12:19:28.485Z,99.9
2019-04-29T12:24:31.077Z,99.9
2019-04-29T12:29:33.207Z,99.9
2019-04-29T12:34:35.696Z,99.9
2019-04-29T12:39:43.218Z,99.9
2019-04-29T12:44:44.389Z,99.9
2019-04-29T12:49:46.340Z,99.9
2019-04-29T12:54:45.972Z,99.9
2019-04-29T12:59:47.990Z,99.9
2019-04-29T13:04:51.474Z,99.9
2019-04-29T13:09:52.923Z,99.9
2019-04-29T13:15:02.471Z,99.9
2019-04-29T13:20:01.795Z,99.9
2019-04-29T13:25:00.574Z,99.9
2019-04-29T13:30:06.621Z,99.9
2019-04-29T13:35:10.243Z,99.9
2019-04-29T13:40:07.630Z,99.9
2019-04-29T13:45:13.067Z,99.9
2019-04-29T13:50:18.662Z,99.9
2019-04-29T13:55:17.398Z,99.9
2019-04-29T14:00:19.858Z,99.9
2019-04-29T14:05:20.018Z,99.9
2019-04-29T14:10:22.360Z,99.9
2019-04-29T14:15:24.841Z,99.9
2019-04-29T14:20:27.272Z,99.9
2019-04-29T14:25:29.764Z,99.9
2019-04-29T14:30:38.745Z,99.9
2019-04-29T14:35:36.285Z,99.9
2019-04-29T14:45:39.747Z,99.9
2019-04-29T14:50:42.286Z,99.9
2019-04-29T14:55:44.861Z,99.9
2019-04-29T15:00:47.079Z,99.9
2019-04-29T15:05:49.508Z,99.9
2019-04-29T15:10:51.896Z,99.9
2019-04-29T15:16:04.119Z,99.9
2019-04-29T15:20:56.976Z,99.9
2019-04-29T15:25:59.310Z,99.9
2019-04-29T15:31:01.710Z,99.9
2019-04-29T15:36:04.126Z,99.9
2019-04-29T15:46:11.216Z,99.9
2019-04-29T15:51:13.807Z,99.9
2019-04-29T15:56:28.057Z,99.9
2019-04-29T16:06:21.551Z,99.9
2019-04-29T16:11:21.339Z,99.9
2019-04-29T16:16:23.772Z,99.9
2019-04-29T16:21:26.270Z,99.9
2019-04-29T16:26:30.037Z,99.9
2019-04-29T16:36:33.628Z,99.9
2019-04-29T16:41:36.086Z,99.9
2019-04-29T16:46:38.643Z,99.9
2019-04-29T16:51:41.162Z,99.9
2019-04-29T16:56:43.871Z,99.9
2019-04-29T17:01:45.970Z,99.9
2019-04-29T17:07:11.030Z,99.9
2019-04-29T17:11:55.696Z,99.9
2019-04-29T17:16:53.331Z,99.9
2019-04-29T17:22:22.924Z,99.9
2019-04-29T17:26:58.221Z,99.9
2019-04-29T17:32:01.599Z,99.9
2019-04-29T17:37:03.146Z,99.9
2019-04-29T17:42:05.877Z,99.9
2019-04-29T17:47:11.301Z,99.9
2019-04-29T17:52:10.523Z,99.9
2019-04-29T17:57:26.133Z,99.9
2019-04-29T18:02:21.627Z,99.9
2019-04-29T18:07:18.039Z,99.9
2019-04-29T18:12:20.382Z,99.9
2019-04-29T18:17:26.664Z,99.9
2019-04-29T18:22:25.217Z,99.9
2019-04-29T18:27:27.699Z,99.9
2019-04-29T18:32:35.442Z,99.9
2019-04-29T18:37:34.965Z,99.9
2019-04-29T18:42:38.333Z,99.9
2019-04-29T18:47:38.829Z,99.9
2019-04-29T18:52:39.969Z,99.9
2019-04-29T18:57:42.442Z,99.9
2019-04-29T19:02:47.992Z,99.9
2019-04-29T19:07:54.551Z,99.9
2019-04-29T19:12:58.066Z,99.9
2019-04-29T19:17:58.980Z,99.9
2019-04-29T19:23:05.289Z,99.9
2019-04-29T19:27:57.198Z,99.9
2019-04-29T19:33:00.551Z,99.9
2019-04-29T19:38:02.075Z,99.9
2019-04-29T19:43:06.067Z,99.9
2019-04-29T19:48:07.031Z,99.9
2019-04-29T19:53:09.632Z,99.9
2019-04-29T19:58:12.814Z,99.9
2019-04-29T20:03:21.076Z,99.9
2019-04-29T20:08:31.368Z,99.9
2019-04-29T20:13:19.840Z,99.9
2019-04-29T20:23:26.023Z,99.9
2019-04-29T20:28:26.807Z,99.9
2019-04-29T20:33:29.299Z,99.9
2019-04-29T20:43:35.757Z,99.9
2019-04-29T20:48:37.164Z,99.9
2019-04-29T20:53:40.103Z,99.9
2019-04-29T20:58:44.170Z,99.9
2019-04-29T21:03:46.027Z,99.9
2019-04-29T21:08:50.915Z,99.9
2019-04-29T21:13:54.470Z,99.9
2019-04-29T21:18:52.747Z,99.9
2019-04-29T21:23:55.242Z,99.9
2019-04-29T21:28:56.145Z,99.9
2019-04-29T21:33:58.965Z,99.9
2019-04-29T21:39:02.130Z,99.9
2019-04-29T21:44:03.552Z,99.9
2019-04-29T21:49:11.371Z,99.9
2019-04-29T21:54:09.544Z,99.9
2019-04-29T21:59:12.263Z,99.9
2019-04-29T22:04:13.438Z,99.9
2019-04-29T22:09:15.986Z,99.9
2019-04-29T22:14:18.259Z,99.9
2019-04-29T22:19:24.555Z,99.9
2019-04-29T22:24:26.090Z,99.9
2019-04-29T22:29:25.644Z,99.9
2019-04-29T22:34:28.094Z,99.9
2019-04-29T22:39:30.572Z,99.9
2019-04-29T22:44:33.044Z,99.9
2019-04-29T22:49:35.489Z,99.9
2019-04-29T22:54:38.017Z,99.9
2019-04-29T22:59:40.416Z,99.9
2019-04-29T23:04:47.106Z,99.9
2019-04-29T23:09:46.226Z,99.9
2019-04-29T23:14:47.751Z,99.9
2019-04-29T23:19:51.840Z,99.9
2019-04-29T23:24:52.741Z,99.9
2019-04-29T23:29:55.269Z,99.9
2019-04-29T23:35:01.629Z,99.9
2019-04-29T23:40:00.061Z,99.9
2019-04-29T23:45:02.581Z,99.9
2019-04-29T23:50:05.046Z,99.9
2019-04-29T23:55:07.713Z,99.9
